sensor_id;sensor_type;location;lat;lon;timestamp;pressure;altitude;pressure_sealevel;temperature;humidity
44441;BME280;30146;52.268;20.944;2023-03-03T00:01:19;100754.85;;;0.48;63.92
44441;BME280;30146;52.268;20.944;2023-03-03T00:03:50;100752.89;;;0.46;64.03
44441;BME280;30146;52.268;20.944;2023-03-03T00:06:21;100755.00;;;0.43;64.22
44441;BME280;30146;52.268;20.944;2023-03-03T00:08:53;100753.30;;;0.43;64.11
44441;BME280;30146;52.268;20.944;2023-03-03T00:11:24;100744.88;;;0.43;64.35
44441;BME280;30146;52.268;20.944;2023-03-03T00:13:58;100743.71;;;0.43;64.35
44441;BME280;30146;52.268;20.944;2023-03-03T00:16:34;100745.88;;;0.43;64.18
44441;BME280;30146;52.268;20.944;2023-03-03T00:19:13;100747.92;;;0.43;64.31
44441;BME280;30146;52.268;20.944;2023-03-03T00:21:46;100747.95;;;0.44;64.18
44441;BME280;30146;52.268;20.944;2023-03-03T00:24:20;100745.62;;;0.44;64.37
44441;BME280;30146;52.268;20.944;2023-03-03T00:26:52;100741.25;;;0.44;64.51
44441;BME280;30146;52.268;20.944;2023-03-03T00:29:36;100735.61;;;0.42;64.48
44441;BME280;30146;52.268;20.944;2023-03-03T00:32:23;100732.81;;;0.39;64.26
44441;BME280;30146;52.268;20.944;2023-03-03T00:34:57;100729.05;;;0.37;64.31
44441;BME280;30146;52.268;20.944;2023-03-03T00:37:32;100729.00;;;0.36;64.48
44441;BME280;30146;52.268;20.944;2023-03-03T00:40:20;100719.90;;;0.36;64.57
44441;BME280;30146;52.268;20.944;2023-03-03T00:42:55;100712.73;;;0.33;64.46
44441;BME280;30146;52.268;20.944;2023-03-03T00:45:30;100713.02;;;0.31;64.46
44441;BME280;30146;52.268;20.944;2023-03-03T00:48:21;100707.60;;;0.31;64.43
44441;BME280;30146;52.268;20.944;2023-03-03T00:50:53;100704.45;;;0.32;64.79
44441;BME280;30146;52.268;20.944;2023-03-03T00:53:26;100705.02;;;0.34;64.86
44441;BME280;30146;52.268;20.944;2023-03-03T00:55:57;100704.77;;;0.36;64.95
44441;BME280;30146;52.268;20.944;2023-03-03T00:58:28;100702.16;;;0.38;65.00
44441;BME280;30146;52.268;20.944;2023-03-03T01:01:00;100699.55;;;0.40;64.85
44441;BME280;30146;52.268;20.944;2023-03-03T01:03:38;100691.14;;;0.40;64.89
44441;BME280;30146;52.268;20.944;2023-03-03T01:06:10;100690.98;;;0.41;65.08
44441;BME280;30146;52.268;20.944;2023-03-03T01:08:41;100690.20;;;0.42;65.23
44441;BME280;30146;52.268;20.944;2023-03-03T01:11:14;100684.84;;;0.43;65.22
44441;BME280;30146;52.268;20.944;2023-03-03T01:13:47;100683.29;;;0.42;65.08
44441;BME280;30146;52.268;20.944;2023-03-03T01:16:19;100672.77;;;0.39;65.03
44441;BME280;30146;52.268;20.944;2023-03-03T01:18:52;100672.52;;;0.37;65.03
44441;BME280;30146;52.268;20.944;2023-03-03T01:21:23;100667.71;;;0.34;65.00
44441;BME280;30146;52.268;20.944;2023-03-03T01:23:54;100658.23;;;0.33;65.00
44441;BME280;30146;52.268;20.944;2023-03-03T01:26:25;100652.50;;;0.32;65.05
44441;BME280;30146;52.268;20.944;2023-03-03T01:28:55;100652.84;;;0.32;65.24
44441;BME280;30146;52.268;20.944;2023-03-03T01:31:27;100652.99;;;0.32;65.04
44441;BME280;30146;52.268;20.944;2023-03-03T01:33:58;100648.96;;;0.32;65.22
44441;BME280;30146;52.268;20.944;2023-03-03T01:36:29;100645.79;;;0.33;65.39
44441;BME280;30146;52.268;20.944;2023-03-03T01:39:01;100641.10;;;0.33;65.38
44441;BME280;30146;52.268;20.944;2023-03-03T01:41:32;100644.44;;;0.37;65.52
44441;BME280;30146;52.268;20.944;2023-03-03T01:44:03;100637.09;;;0.38;65.38
44441;BME280;30146;52.268;20.944;2023-03-03T01:46:49;100635.94;;;0.39;65.46
44441;BME280;30146;52.268;20.944;2023-03-03T01:49:24;100631.56;;;0.39;65.33
44441;BME280;30146;52.268;20.944;2023-03-03T01:51:59;100626.83;;;0.38;65.33
44441;BME280;30146;52.268;20.944;2023-03-03T01:54:35;100631.05;;;0.38;65.40
44441;BME280;30146;52.268;20.944;2023-03-03T01:57:14;100628.79;;;0.37;65.24
44441;BME280;30146;52.268;20.944;2023-03-03T01:59:47;100628.41;;;0.35;65.24
44441;BME280;30146;52.268;20.944;2023-03-03T02:02:19;100630.77;;;0.35;65.44
44441;BME280;30146;52.268;20.944;2023-03-03T02:04:51;100627.83;;;0.33;65.49
44441;BME280;30146;52.268;20.944;2023-03-03T02:07:23;100629.92;;;0.31;65.35
44441;BME280;30146;52.268;20.944;2023-03-03T02:10:01;100626.97;;;0.28;65.15
44441;BME280;30146;52.268;20.944;2023-03-03T02:12:37;100621.64;;;0.25;65.13
44441;BME280;30146;52.268;20.944;2023-03-03T02:15:25;100622.94;;;0.24;65.09
44441;BME280;30146;52.268;20.944;2023-03-03T02:17:59;100627.26;;;0.22;65.19
44441;BME280;30146;52.268;20.944;2023-03-03T02:20:39;100632.95;;;0.22;65.28
44441;BME280;30146;52.268;20.944;2023-03-03T02:23:19;100631.33;;;0.24;65.43
44441;BME280;30146;52.268;20.944;2023-03-03T02:26:08;100629.70;;;0.25;65.39
44441;BME280;30146;52.268;20.944;2023-03-03T02:28:41;100627.69;;;0.25;65.53
44441;BME280;30146;52.268;20.944;2023-03-03T02:31:14;100627.91;;;0.26;65.50
44441;BME280;30146;52.268;20.944;2023-03-03T02:33:48;100630.61;;;0.27;65.48
44441;BME280;30146;52.268;20.944;2023-03-03T02:36:22;100630.81;;;0.28;65.60
44441;BME280;30146;52.268;20.944;2023-03-03T02:38:58;100629.33;;;0.29;65.57
44441;BME280;30146;52.268;20.944;2023-03-03T02:41:35;100630.15;;;0.28;65.51
44441;BME280;30146;52.268;20.944;2023-03-03T02:44:11;100627.95;;;0.28;65.49
44441;BME280;30146;52.268;20.944;2023-03-03T02:46:46;100627.42;;;0.27;65.53
44441;BME280;30146;52.268;20.944;2023-03-03T02:49:21;100623.70;;;0.26;65.42
44441;BME280;30146;52.268;20.944;2023-03-03T02:51:52;100622.02;;;0.26;65.43
44441;BME280;30146;52.268;20.944;2023-03-03T02:54:25;100621.64;;;0.25;65.59
44441;BME280;30146;52.268;20.944;2023-03-03T02:56:57;100624.29;;;0.24;65.50
44441;BME280;30146;52.268;20.944;2023-03-03T02:59:29;100614.30;;;0.22;65.61
44441;BME280;30146;52.268;20.944;2023-03-03T03:02:02;100618.61;;;0.20;65.30
44441;BME280;30146;52.268;20.944;2023-03-03T03:04:33;100616.02;;;0.18;65.48
44441;BME280;30146;52.268;20.944;2023-03-03T03:07:06;100616.98;;;0.17;65.42
44441;BME280;30146;52.268;20.944;2023-03-03T03:09:38;100612.05;;;0.15;65.50
44441;BME280;30146;52.268;20.944;2023-03-03T03:12:09;100608.08;;;0.13;65.34
44441;BME280;30146;52.268;20.944;2023-03-03T03:14:40;100608.62;;;0.09;65.42
44441;BME280;30146;52.268;20.944;2023-03-03T03:17:11;100606.48;;;0.07;65.28
44441;BME280;30146;52.268;20.944;2023-03-03T03:19:44;100611.36;;;0.06;65.45
44441;BME280;30146;52.268;20.944;2023-03-03T03:22:16;100604.95;;;0.05;65.57
44441;BME280;30146;52.268;20.944;2023-03-03T03:24:48;100605.56;;;0.04;65.53
44441;BME280;30146;52.268;20.944;2023-03-03T03:27:19;100606.33;;;0.02;65.73
44441;BME280;30146;52.268;20.944;2023-03-03T03:29:52;100605.30;;;0.02;65.72
44441;BME280;30146;52.268;20.944;2023-03-03T03:32:23;100608.66;;;0.01;65.73
44441;BME280;30146;52.268;20.944;2023-03-03T03:34:54;100606.98;;;0.01;66.02
44441;BME280;30146;52.268;20.944;2023-03-03T03:37:28;100603.45;;;0.01;65.96
44441;BME280;30146;52.268;20.944;2023-03-03T03:39:59;100605.65;;;0.02;66.09
44441;BME280;30146;52.268;20.944;2023-03-03T03:42:31;100607.63;;;0.01;65.91
44441;BME280;30146;52.268;20.944;2023-03-03T03:45:02;100611.60;;;-0.01;65.92
44441;BME280;30146;52.268;20.944;2023-03-03T03:47:34;100608.48;;;-0.03;65.97
44441;BME280;30146;52.268;20.944;2023-03-03T03:50:07;100602.70;;;-0.05;65.80
44441;BME280;30146;52.268;20.944;2023-03-03T03:52:39;100596.08;;;-0.07;66.01
44441;BME280;30146;52.268;20.944;2023-03-03T03:55:12;100589.30;;;-0.08;66.01
44441;BME280;30146;52.268;20.944;2023-03-03T03:57:43;100579.98;;;-0.10;66.00
44441;BME280;30146;52.268;20.944;2023-03-03T04:00:15;100581.41;;;-0.13;65.90
44441;BME280;30146;52.268;20.944;2023-03-03T04:02:51;100588.22;;;-0.15;66.04
44441;BME280;30146;52.268;20.944;2023-03-03T04:05:22;100592.91;;;-0.15;66.07
44441;BME280;30146;52.268;20.944;2023-03-03T04:07:55;100588.34;;;-0.16;66.08
44441;BME280;30146;52.268;20.944;2023-03-03T04:10:26;100587.20;;;-0.20;65.90
44441;BME280;30146;52.268;20.944;2023-03-03T04:12:57;100590.23;;;-0.20;66.27
44441;BME280;30146;52.268;20.944;2023-03-03T04:15:29;100586.69;;;-0.20;66.19
44441;BME280;30146;52.268;20.944;2023-03-03T04:18:01;100583.46;;;-0.21;66.35
44441;BME280;30146;52.268;20.944;2023-03-03T04:20:32;100584.42;;;-0.22;66.20
44441;BME280;30146;52.268;20.944;2023-03-03T04:23:03;100580.71;;;-0.22;66.41
44441;BME280;30146;52.268;20.944;2023-03-03T04:25:34;100576.17;;;-0.22;66.36
44441;BME280;30146;52.268;20.944;2023-03-03T04:28:12;100568.12;;;-0.22;66.52
44441;BME280;30146;52.268;20.944;2023-03-03T04:30:43;100565.58;;;-0.23;66.40
44441;BME280;30146;52.268;20.944;2023-03-03T04:33:15;100562.02;;;-0.24;66.35
44441;BME280;30146;52.268;20.944;2023-03-03T04:35:47;100564.16;;;-0.25;66.40
44441;BME280;30146;52.268;20.944;2023-03-03T04:38:18;100567.53;;;-0.25;66.49
44441;BME280;30146;52.268;20.944;2023-03-03T04:40:50;100569.02;;;-0.26;66.41
44441;BME280;30146;52.268;20.944;2023-03-03T04:43:20;100566.14;;;-0.26;66.50
44441;BME280;30146;52.268;20.944;2023-03-03T04:45:51;100561.92;;;-0.27;66.57
44441;BME280;30146;52.268;20.944;2023-03-03T04:48:23;100553.75;;;-0.29;66.25
44441;BME280;30146;52.268;20.944;2023-03-03T04:50:54;100550.19;;;-0.31;66.55
44441;BME280;30146;52.268;20.944;2023-03-03T04:53:25;100554.83;;;-0.32;66.42
44441;BME280;30146;52.268;20.944;2023-03-03T04:55:55;100552.23;;;-0.34;66.73
44441;BME280;30146;52.268;20.944;2023-03-03T04:58:27;100547.14;;;-0.35;66.73
44441;BME280;30146;52.268;20.944;2023-03-03T05:00:58;100547.61;;;-0.36;66.55
44441;BME280;30146;52.268;20.944;2023-03-03T05:03:30;100545.75;;;-0.36;66.81
44441;BME280;30146;52.268;20.944;2023-03-03T05:06:01;100541.19;;;-0.37;66.79
44441;BME280;30146;52.268;20.944;2023-03-03T05:08:31;100542.63;;;-0.39;66.86
44441;BME280;30146;52.268;20.944;2023-03-03T05:11:03;100537.71;;;-0.40;66.81
44441;BME280;30146;52.268;20.944;2023-03-03T05:13:34;100543.67;;;-0.43;66.71
44441;BME280;30146;52.268;20.944;2023-03-03T05:16:05;100540.77;;;-0.44;66.64
44441;BME280;30146;52.268;20.944;2023-03-03T05:18:37;100546.66;;;-0.43;66.65
44441;BME280;30146;52.268;20.944;2023-03-03T05:21:08;100545.41;;;-0.41;67.07
44441;BME280;30146;52.268;20.944;2023-03-03T05:23:38;100543.95;;;-0.40;66.88
44441;BME280;30146;52.268;20.944;2023-03-03T05:26:09;100538.85;;;-0.37;66.91
44441;BME280;30146;52.268;20.944;2023-03-03T05:28:40;100536.80;;;-0.33;67.27
44441;BME280;30146;52.268;20.944;2023-03-03T05:31:11;100540.35;;;-0.28;67.02
44441;BME280;30146;52.268;20.944;2023-03-03T05:33:42;100536.65;;;-0.24;67.18
44441;BME280;30146;52.268;20.944;2023-03-03T05:36:12;100537.30;;;-0.20;67.24
44441;BME280;30146;52.268;20.944;2023-03-03T05:38:43;100537.02;;;-0.14;67.09
44441;BME280;30146;52.268;20.944;2023-03-03T05:41:14;100538.71;;;-0.09;67.12
44441;BME280;30146;52.268;20.944;2023-03-03T05:43:45;100538.77;;;-0.03;67.26
44441;BME280;30146;52.268;20.944;2023-03-03T05:46:16;100537.58;;;0.01;66.98
44441;BME280;30146;52.268;20.944;2023-03-03T05:48:47;100538.13;;;0.08;67.36
44441;BME280;30146;52.268;20.944;2023-03-03T05:51:17;100541.27;;;0.15;67.40
44441;BME280;30146;52.268;20.944;2023-03-03T05:53:48;100539.49;;;0.23;67.33
44441;BME280;30146;52.268;20.944;2023-03-03T05:56:19;100536.29;;;0.27;67.05
44441;BME280;30146;52.268;20.944;2023-03-03T05:58:50;100529.99;;;0.29;66.93
44441;BME280;30146;52.268;20.944;2023-03-03T06:01:20;100530.80;;;0.33;66.97
44441;BME280;30146;52.268;20.944;2023-03-03T06:03:51;100524.73;;;0.37;66.91
44441;BME280;30146;52.268;20.944;2023-03-03T06:06:22;100520.66;;;0.36;66.76
44441;BME280;30146;52.268;20.944;2023-03-03T06:08:53;100528.44;;;0.37;66.85
44441;BME280;30146;52.268;20.944;2023-03-03T06:11:25;100531.06;;;0.41;67.03
44441;BME280;30146;52.268;20.944;2023-03-03T06:13:56;100535.16;;;0.43;66.97
44441;BME280;30146;52.268;20.944;2023-03-03T06:16:27;100535.22;;;0.45;66.97
44441;BME280;30146;52.268;20.944;2023-03-03T06:18:58;100542.40;;;0.48;67.12
44441;BME280;30146;52.268;20.944;2023-03-03T06:21:29;100544.21;;;0.51;67.09
44441;BME280;30146;52.268;20.944;2023-03-03T06:24:00;100542.60;;;0.53;66.91
44441;BME280;30146;52.268;20.944;2023-03-03T06:26:31;100543.05;;;0.56;67.00
44441;BME280;30146;52.268;20.944;2023-03-03T06:29:02;100536.90;;;0.59;66.94
44441;BME280;30146;52.268;20.944;2023-03-03T06:31:33;100532.50;;;0.63;66.95
44441;BME280;30146;52.268;20.944;2023-03-03T06:34:04;100533.71;;;0.64;66.86
44441;BME280;30146;52.268;20.944;2023-03-03T06:36:35;100535.70;;;0.63;66.75
44441;BME280;30146;52.268;20.944;2023-03-03T06:39:06;100540.17;;;0.61;66.67
44441;BME280;30146;52.268;20.944;2023-03-03T06:41:38;100542.63;;;0.59;66.70
44441;BME280;30146;52.268;20.944;2023-03-03T06:44:10;100539.59;;;0.58;66.72
44441;BME280;30146;52.268;20.944;2023-03-03T06:46:41;100541.09;;;0.58;66.76
44441;BME280;30146;52.268;20.944;2023-03-03T06:49:12;100537.70;;;0.57;66.79
44441;BME280;30146;52.268;20.944;2023-03-03T06:51:42;100539.48;;;0.56;66.79
44441;BME280;30146;52.268;20.944;2023-03-03T06:54:17;100534.77;;;0.55;66.88
44441;BME280;30146;52.268;20.944;2023-03-03T06:56:49;100537.80;;;0.56;66.87
44441;BME280;30146;52.268;20.944;2023-03-03T06:59:25;100540.92;;;0.58;66.96
44441;BME280;30146;52.268;20.944;2023-03-03T07:01:57;100546.63;;;0.63;67.23
44441;BME280;30146;52.268;20.944;2023-03-03T07:04:33;100544.97;;;0.69;67.25
44441;BME280;30146;52.268;20.944;2023-03-03T07:07:18;100543.14;;;0.75;67.28
44441;BME280;30146;52.268;20.944;2023-03-03T07:09:51;100534.98;;;0.83;67.34
44441;BME280;30146;52.268;20.944;2023-03-03T07:12:24;100535.81;;;0.87;67.18
44441;BME280;30146;52.268;20.944;2023-03-03T07:15:11;100539.11;;;0.90;67.22
44441;BME280;30146;52.268;20.944;2023-03-03T07:17:46;100534.30;;;0.92;67.20
44441;BME280;30146;52.268;20.944;2023-03-03T07:20:20;100535.66;;;0.93;67.22
44441;BME280;30146;52.268;20.944;2023-03-03T07:22:52;100527.73;;;0.92;67.10
44441;BME280;30146;52.268;20.944;2023-03-03T07:25:28;100521.20;;;0.88;66.94
44441;BME280;30146;52.268;20.944;2023-03-03T07:28:14;100517.27;;;0.86;67.01
44441;BME280;30146;52.268;20.944;2023-03-03T07:30:49;100525.41;;;0.83;67.00
44441;BME280;30146;52.268;20.944;2023-03-03T07:33:25;100525.16;;;0.80;66.98
44441;BME280;30146;52.268;20.944;2023-03-03T07:35:58;100534.70;;;0.84;67.28
44441;BME280;30146;52.268;20.944;2023-03-03T07:38:37;100538.47;;;0.91;67.39
44441;BME280;30146;52.268;20.944;2023-03-03T07:41:16;100538.34;;;0.98;67.49
44441;BME280;30146;52.268;20.944;2023-03-03T07:43:52;100542.80;;;1.05;67.54
44441;BME280;30146;52.268;20.944;2023-03-03T07:46:41;100543.13;;;1.10;67.53
44441;BME280;30146;52.268;20.944;2023-03-03T07:49:22;100546.00;;;1.16;67.64
44441;BME280;30146;52.268;20.944;2023-03-03T07:51:55;100549.20;;;1.21;67.45
44441;BME280;30146;52.268;20.944;2023-03-03T07:54:35;100549.27;;;1.24;67.24
44441;BME280;30146;52.268;20.944;2023-03-03T07:57:20;100551.70;;;1.31;67.50
44441;BME280;30146;52.268;20.944;2023-03-03T07:59:54;100553.73;;;1.36;67.40
44441;BME280;30146;52.268;20.944;2023-03-03T08:02:44;100552.89;;;1.43;67.37
44441;BME280;30146;52.268;20.944;2023-03-03T08:05:30;100554.34;;;1.46;67.44
44441;BME280;30146;52.268;20.944;2023-03-03T08:08:25;100546.20;;;1.49;67.24
44441;BME280;30146;52.268;20.944;2023-03-03T08:10:58;100553.02;;;1.52;67.24
44441;BME280;30146;52.268;20.944;2023-03-03T08:13:37;100558.71;;;1.56;67.36
44441;BME280;30146;52.268;20.944;2023-03-03T08:16:28;100558.40;;;1.63;67.40
44441;BME280;30146;52.268;20.944;2023-03-03T08:19:02;100564.47;;;1.69;67.32
44441;BME280;30146;52.268;20.944;2023-03-03T08:21:36;100565.15;;;1.74;67.43
44441;BME280;30146;52.268;20.944;2023-03-03T08:24:07;100573.45;;;1.81;67.46
44441;BME280;30146;52.268;20.944;2023-03-03T08:26:39;100568.77;;;1.88;67.34
44441;BME280;30146;52.268;20.944;2023-03-03T08:29:10;100574.68;;;1.94;67.33
44441;BME280;30146;52.268;20.944;2023-03-03T08:31:42;100578.08;;;2.01;67.30
44441;BME280;30146;52.268;20.944;2023-03-03T08:34:13;100584.27;;;2.06;67.29
44441;BME280;30146;52.268;20.944;2023-03-03T08:36:44;100583.67;;;2.08;66.96
44441;BME280;30146;52.268;20.944;2023-03-03T08:39:16;100598.98;;;2.07;67.02
44441;BME280;30146;52.268;20.944;2023-03-03T08:41:47;100606.48;;;2.10;66.91
44441;BME280;30146;52.268;20.944;2023-03-03T08:44:18;100607.89;;;2.12;67.09
44441;BME280;30146;52.268;20.944;2023-03-03T08:46:58;100604.91;;;2.14;66.90
44441;BME280;30146;52.268;20.944;2023-03-03T08:49:30;100596.01;;;2.15;66.72
44441;BME280;30146;52.268;20.944;2023-03-03T08:52:02;100595.23;;;2.18;66.70
44441;BME280;30146;52.268;20.944;2023-03-03T08:54:34;100599.77;;;2.23;66.71
44441;BME280;30146;52.268;20.944;2023-03-03T08:57:05;100598.77;;;2.29;66.82
44441;BME280;30146;52.268;20.944;2023-03-03T08:59:37;100596.44;;;2.36;66.74
44441;BME280;30146;52.268;20.944;2023-03-03T09:02:09;100592.12;;;2.44;66.95
44441;BME280;30146;52.268;20.944;2023-03-03T09:04:40;100592.44;;;2.50;66.51
44441;BME280;30146;52.268;20.944;2023-03-03T09:07:11;100590.34;;;2.54;66.63
44441;BME280;30146;52.268;20.944;2023-03-03T09:09:43;100590.08;;;2.57;66.65
44441;BME280;30146;52.268;20.944;2023-03-03T09:12:17;100587.67;;;2.61;66.48
44441;BME280;30146;52.268;20.944;2023-03-03T09:14:48;100586.59;;;2.65;66.03
44441;BME280;30146;52.268;20.944;2023-03-03T09:17:25;100585.69;;;2.69;66.23
44441;BME280;30146;52.268;20.944;2023-03-03T09:19:59;100582.29;;;2.75;66.36
44441;BME280;30146;52.268;20.944;2023-03-03T09:22:36;100570.19;;;2.77;65.57
44441;BME280;30146;52.268;20.944;2023-03-03T09:25:17;100571.98;;;2.80;65.74
44441;BME280;30146;52.268;20.944;2023-03-03T09:27:53;100571.13;;;2.81;65.74
44441;BME280;30146;52.268;20.944;2023-03-03T09:30:36;100562.56;;;2.83;65.79
44441;BME280;30146;52.268;20.944;2023-03-03T09:33:23;100560.38;;;2.83;65.47
44441;BME280;30146;52.268;20.944;2023-03-03T09:36:01;100555.00;;;2.84;65.76
44441;BME280;30146;52.268;20.944;2023-03-03T09:38:34;100552.30;;;2.83;65.46
44441;BME280;30146;52.268;20.944;2023-03-03T09:41:25;100553.52;;;2.85;65.45
44441;BME280;30146;52.268;20.944;2023-03-03T09:47:07;100549.47;;;2.85;65.02
44441;BME280;30146;52.268;20.944;2023-03-03T09:49:48;100541.39;;;2.87;65.24
44441;BME280;30146;52.268;20.944;2023-03-03T09:52:35;100540.55;;;2.86;65.33
44441;BME280;30146;52.268;20.944;2023-03-03T09:55:18;100541.43;;;2.88;65.22
44441;BME280;30146;52.268;20.944;2023-03-03T09:58:03;100538.28;;;2.91;65.44
44441;BME280;30146;52.268;20.944;2023-03-03T10:00:51;100534.57;;;2.91;64.97
44441;BME280;30146;52.268;20.944;2023-03-03T10:03:47;100538.61;;;2.89;65.22
44441;BME280;30146;52.268;20.944;2023-03-03T10:06:26;100538.38;;;2.87;65.16
44441;BME280;30146;52.268;20.944;2023-03-03T10:09:07;100539.70;;;2.87;65.01
44441;BME280;30146;52.268;20.944;2023-03-03T10:11:44;100540.04;;;2.86;64.97
44441;BME280;30146;52.268;20.944;2023-03-03T10:14:41;100544.43;;;2.86;65.30
44441;BME280;30146;52.268;20.944;2023-03-03T10:17:24;100544.60;;;2.86;65.00
44441;BME280;30146;52.268;20.944;2023-03-03T10:20:08;100542.73;;;2.86;64.88
44441;BME280;30146;52.268;20.944;2023-03-03T10:22:51;100540.33;;;2.84;64.87
44441;BME280;30146;52.268;20.944;2023-03-03T10:25:32;100545.86;;;2.82;64.85
44441;BME280;30146;52.268;20.944;2023-03-03T10:31:11;100539.08;;;2.81;64.76
44441;BME280;30146;52.268;20.944;2023-03-03T10:33:53;100541.27;;;2.82;64.78
44441;BME280;30146;52.268;20.944;2023-03-03T10:36:40;100552.95;;;2.83;64.90
44441;BME280;30146;52.268;20.944;2023-03-03T10:39:31;100554.83;;;2.83;64.76
44441;BME280;30146;52.268;20.944;2023-03-03T10:42:39;100561.73;;;2.82;64.80
44441;BME280;30146;52.268;20.944;2023-03-03T10:45:40;100562.43;;;2.84;64.87
44441;BME280;30146;52.268;20.944;2023-03-03T10:48:25;100564.59;;;2.82;64.94
44441;BME280;30146;52.268;20.944;2023-03-03T10:51:08;100570.48;;;2.81;64.78
44441;BME280;30146;52.268;20.944;2023-03-03T10:53:57;100567.92;;;2.80;64.82
44441;BME280;30146;52.268;20.944;2023-03-03T10:56:40;100566.31;;;2.77;64.33
44441;BME280;30146;52.268;20.944;2023-03-03T10:59:37;100562.39;;;2.75;64.49
44441;BME280;30146;52.268;20.944;2023-03-03T11:02:17;100557.96;;;2.75;64.63
44441;BME280;30146;52.268;20.944;2023-03-03T11:05:00;100556.09;;;2.73;64.73
44441;BME280;30146;52.268;20.944;2023-03-03T11:07:38;100558.40;;;2.72;64.16
44441;BME280;30146;52.268;20.944;2023-03-03T11:10:21;100558.70;;;2.70;64.07
44441;BME280;30146;52.268;20.944;2023-03-03T11:13:03;100565.40;;;2.67;64.49
44441;BME280;30146;52.268;20.944;2023-03-03T11:15:47;100567.09;;;2.67;64.49
44441;BME280;30146;52.268;20.944;2023-03-03T11:18:36;100567.73;;;2.67;64.25
44441;BME280;30146;52.268;20.944;2023-03-03T11:21:20;100573.23;;;2.65;64.35
44441;BME280;30146;52.268;20.944;2023-03-03T11:24:03;100565.66;;;2.65;64.40
44441;BME280;30146;52.268;20.944;2023-03-03T11:26:51;100559.74;;;2.64;64.23
44441;BME280;30146;52.268;20.944;2023-03-03T11:29:37;100555.61;;;2.62;64.14
44441;BME280;30146;52.268;20.944;2023-03-03T11:32:23;100548.42;;;2.64;64.18
44441;BME280;30146;52.268;20.944;2023-03-03T11:35:03;100543.08;;;2.66;64.30
44441;BME280;30146;52.268;20.944;2023-03-03T11:37:41;100540.05;;;2.66;64.42
44441;BME280;30146;52.268;20.944;2023-03-03T11:40:19;100541.01;;;2.65;64.21
44441;BME280;30146;52.268;20.944;2023-03-03T11:43:00;100538.76;;;2.62;64.17
44441;BME280;30146;52.268;20.944;2023-03-03T11:45:41;100536.08;;;2.63;64.24
44441;BME280;30146;52.268;20.944;2023-03-03T11:48:17;100540.91;;;2.61;64.36
44441;BME280;30146;52.268;20.944;2023-03-03T11:50:57;100540.50;;;2.58;64.32
44441;BME280;30146;52.268;20.944;2023-03-03T11:53:39;100537.73;;;2.55;64.32
44441;BME280;30146;52.268;20.944;2023-03-03T11:56:22;100539.34;;;2.53;64.14
44441;BME280;30146;52.268;20.944;2023-03-03T11:59:08;100541.45;;;2.49;64.36
44441;BME280;30146;52.268;20.944;2023-03-03T12:01:48;100545.73;;;2.45;64.18
44441;BME280;30146;52.268;20.944;2023-03-03T12:04:28;100545.81;;;2.42;64.03
44441;BME280;30146;52.268;20.944;2023-03-03T12:07:15;100546.23;;;2.39;64.28
44441;BME280;30146;52.268;20.944;2023-03-03T12:09:57;100541.83;;;2.38;64.54
44441;BME280;30146;52.268;20.944;2023-03-03T12:12:35;100547.92;;;2.39;64.46
44441;BME280;30146;52.268;20.944;2023-03-03T12:15:21;100547.41;;;2.39;64.33
44441;BME280;30146;52.268;20.944;2023-03-03T12:18:08;100542.16;;;2.38;64.39
44441;BME280;30146;52.268;20.944;2023-03-03T12:20:45;100539.28;;;2.37;64.51
44441;BME280;30146;52.268;20.944;2023-03-03T12:23:42;100539.27;;;2.37;64.75
44441;BME280;30146;52.268;20.944;2023-03-03T12:26:18;100544.52;;;2.37;64.60
44441;BME280;30146;52.268;20.944;2023-03-03T12:28:53;100540.11;;;2.37;64.90
44441;BME280;30146;52.268;20.944;2023-03-03T12:31:32;100542.63;;;2.36;64.73
44441;BME280;30146;52.268;20.944;2023-03-03T12:34:13;100543.42;;;2.35;64.87
44441;BME280;30146;52.268;20.944;2023-03-03T12:39:46;100536.33;;;2.28;64.80
44441;BME280;30146;52.268;20.944;2023-03-03T12:42:29;100535.56;;;2.25;64.85
44441;BME280;30146;52.268;20.944;2023-03-03T12:45:13;100530.50;;;2.25;64.69
44441;BME280;30146;52.268;20.944;2023-03-03T12:47:52;100528.61;;;2.23;64.57
44441;BME280;30146;52.268;20.944;2023-03-03T12:50:38;100527.56;;;2.22;64.63
44441;BME280;30146;52.268;20.944;2023-03-03T12:53:26;100526.02;;;2.21;64.60
44441;BME280;30146;52.268;20.944;2023-03-03T12:56:04;100525.35;;;2.21;65.07
44441;BME280;30146;52.268;20.944;2023-03-03T12:58:44;100528.42;;;2.22;64.95
44441;BME280;30146;52.268;20.944;2023-03-03T13:01:34;100533.98;;;2.23;65.00
44441;BME280;30146;52.268;20.944;2023-03-03T13:04:12;100531.81;;;2.23;64.94
44441;BME280;30146;52.268;20.944;2023-03-03T13:06:50;100530.00;;;2.24;65.14
44441;BME280;30146;52.268;20.944;2023-03-03T13:09:36;100527.69;;;2.26;65.25
44441;BME280;30146;52.268;20.944;2023-03-03T13:12:24;100532.95;;;2.28;65.34
44441;BME280;30146;52.268;20.944;2023-03-03T13:15:05;100535.51;;;2.28;64.96
44441;BME280;30146;52.268;20.944;2023-03-03T13:17:44;100528.27;;;2.29;65.07
44441;BME280;30146;52.268;20.944;2023-03-03T13:20:25;100531.27;;;2.28;64.88
44441;BME280;30146;52.268;20.944;2023-03-03T13:23:05;100535.63;;;2.27;64.95
44441;BME280;30146;52.268;20.944;2023-03-03T13:25:48;100530.38;;;2.26;64.79
44441;BME280;30146;52.268;20.944;2023-03-03T13:28:27;100526.13;;;2.25;64.87
44441;BME280;30146;52.268;20.944;2023-03-03T13:31:04;100525.31;;;2.26;64.97
44441;BME280;30146;52.268;20.944;2023-03-03T13:33:39;100523.96;;;2.26;65.01
44441;BME280;30146;52.268;20.944;2023-03-03T13:36:18;100523.23;;;2.24;64.99
44441;BME280;30146;52.268;20.944;2023-03-03T13:38:52;100516.08;;;2.22;64.98
44441;BME280;30146;52.268;20.944;2023-03-03T13:41:29;100519.27;;;2.21;64.85
44441;BME280;30146;52.268;20.944;2023-03-03T13:44:07;100513.98;;;2.19;65.17